createdAt,value
2018-03-24T00:01:13.894Z,74.70
2018-03-24T00:03:42.630Z,74.70
2018-03-24T00:06:11.267Z,75.00
2018-03-24T00:08:39.790Z,76.10
2018-03-24T00:11:08.378Z,75.70
2018-03-24T00:13:37.976Z,75.90
2018-03-24T00:16:08.081Z,75.90
2018-03-24T00:18:36.691Z,75.90
2018-03-24T00:21:05.257Z,76.10
2018-03-24T00:23:34.075Z,76.40
2018-03-24T00:26:02.912Z,76.40
2018-03-24T00:28:32.444Z,76.70
2018-03-24T00:31:01.178Z,77.00
2018-03-24T00:33:30.719Z,76.90
2018-03-24T00:35:59.545Z,76.90
2018-03-24T00:38:28.189Z,77.30
2018-03-24T00:40:56.861Z,77.40
2018-03-24T00:43:25.767Z,77.40
2018-03-24T00:45:55.516Z,77.00
2018-03-24T00:48:25.006Z,76.60
2018-03-24T00:50:53.672Z,76.40
2018-03-24T00:53:22.397Z,76.40
2018-03-24T00:55:51.195Z,76.50
2018-03-24T00:58:19.818Z,76.30
2018-03-24T01:00:48.524Z,76.40
2018-03-24T01:03:17.190Z,77.40
2018-03-24T01:05:45.757Z,76.60
2018-03-24T01:08:14.363Z,76.50
2018-03-24T01:10:44.538Z,76.70
2018-03-24T01:13:13.183Z,76.70
2018-03-24T01:15:42.302Z,77.70
2018-03-24T01:18:11.697Z,77.90
2018-03-24T01:20:40.626Z,78.30
2018-03-24T01:23:09.349Z,78.10
2018-03-24T01:25:38.712Z,78.40
2018-03-24T01:28:07.468Z,78.40
2018-03-24T01:30:37.012Z,78.50
2018-03-24T01:33:06.314Z,78.70
2018-03-24T01:35:34.956Z,78.60
2018-03-24T01:38:03.569Z,78.90
2018-03-24T01:40:32.166Z,78.40
2018-03-24T01:43:00.762Z,79.00
2018-03-24T01:45:30.196Z,78.50
2018-03-24T01:48:00.336Z,79.10
2018-03-24T01:50:30.249Z,79.10
2018-03-24T01:52:59.632Z,78.80
2018-03-24T01:55:28.266Z,78.70
2018-03-24T01:57:56.822Z,78.60
2018-03-24T02:00:25.581Z,79.00
2018-03-24T02:02:54.158Z,78.50
2018-03-24T02:05:22.796Z,78.10
2018-03-24T02:07:52.273Z,78.20
2018-03-24T02:10:20.944Z,77.60
2018-03-24T02:12:50.293Z,78.20
2018-03-24T02:15:19.036Z,78.20
2018-03-24T02:17:47.704Z,78.20
2018-03-24T02:20:16.999Z,78.60
2018-03-24T02:22:46.428Z,79.10
2018-03-24T02:25:19.271Z,78.90
2018-03-24T02:27:47.873Z,78.90
2018-03-24T02:30:16.584Z,78.80
2018-03-24T02:32:45.186Z,78.80
2018-03-24T02:35:14.611Z,78.70
2018-03-24T02:37:43.287Z,78.70
2018-03-24T02:40:11.952Z,78.90
2018-03-24T02:42:40.662Z,79.00
2018-03-24T02:45:09.391Z,79.80
2018-03-24T02:47:39.196Z,79.70
2018-03-24T02:50:08.618Z,79.60
2018-03-24T02:52:37.205Z,79.80
2018-03-24T02:55:05.820Z,79.90
2018-03-24T02:57:35.112Z,79.60
2018-03-24T03:00:03.886Z,79.50
2018-03-24T03:02:33.188Z,80.40
2018-03-24T03:05:01.996Z,80.30
2018-03-24T03:07:30.736Z,80.30
2018-03-24T03:09:59.279Z,80.50
2018-03-24T03:12:28.041Z,80.10
2018-03-24T03:14:57.409Z,80.80
2018-03-24T03:17:26.336Z,80.80
2018-03-24T03:19:55.773Z,81.10
2018-03-24T03:22:25.035Z,82.10
2018-03-24T03:24:53.718Z,81.30
2018-03-24T03:27:23.169Z,81.70
2018-03-24T03:29:51.933Z,81.60
2018-03-24T03:32:21.588Z,81.20
2018-03-24T03:34:50.268Z,81.00
2018-03-24T03:37:19.041Z,81.50
2018-03-24T03:39:47.626Z,81.70
2018-03-24T03:42:16.222Z,81.60
2018-03-24T03:44:45.190Z,81.10
2018-03-24T03:47:14.476Z,80.70
2018-03-24T03:49:43.296Z,81.30
2018-03-24T03:52:12.391Z,80.90
2018-03-24T03:54:41.488Z,81.00
2018-03-24T03:57:10.886Z,81.10
2018-03-24T03:59:39.446Z,81.10
2018-03-24T04:02:08.070Z,81.10
2018-03-24T04:04:36.666Z,81.30
2018-03-24T04:07:05.341Z,80.30
2018-03-24T04:09:34.679Z,80.50
2018-03-24T04:12:03.218Z,80.50
2018-03-24T04:14:31.806Z,80.70
2018-03-24T04:17:00.588Z,81.80
2018-03-24T04:19:29.261Z,82.00
2018-03-24T04:21:57.987Z,81.90
2018-03-24T04:24:28.231Z,81.20
2018-03-24T04:26:57.657Z,81.10
2018-03-24T04:29:27.045Z,80.60
2018-03-24T04:31:55.660Z,80.60
2018-03-24T04:34:24.438Z,80.80
2018-03-24T04:36:53.020Z,81.40
2018-03-24T04:39:21.766Z,81.90
2018-03-24T04:41:50.422Z,82.90
2018-03-24T04:44:19.062Z,83.10
2018-03-24T04:46:47.757Z,82.70
2018-03-24T04:49:16.355Z,83.20
2018-03-24T04:51:45.630Z,82.80
2018-03-24T04:54:14.591Z,82.90
2018-03-24T04:56:43.742Z,82.60
2018-03-24T04:59:12.696Z,82.20
2018-03-24T05:01:42.082Z,80.30
2018-03-24T05:04:10.712Z,80.30
2018-03-24T05:06:40.172Z,81.00
2018-03-24T05:09:09.144Z,80.90
2018-03-24T05:11:38.501Z,82.50
2018-03-24T05:14:07.122Z,82.10
2018-03-24T05:16:35.798Z,82.30
2018-03-24T05:19:04.590Z,83.00
2018-03-24T05:21:34.110Z,83.40
2018-03-24T05:24:02.888Z,83.30
2018-03-24T05:26:31.881Z,83.10
2018-03-24T05:29:01.170Z,83.00
2018-03-24T05:31:30.583Z,83.20
2018-03-24T05:34:00.055Z,83.30
2018-03-24T05:36:28.793Z,83.20
2018-03-24T05:38:57.592Z,83.50
2018-03-24T05:41:26.383Z,83.60
2018-03-24T05:43:55.215Z,83.90
2018-03-24T05:46:23.858Z,83.60
2018-03-24T05:48:54.384Z,80.90
2018-03-24T05:51:23.107Z,80.90
2018-03-24T05:53:52.601Z,77.10
2018-03-24T05:56:23.237Z,77.30
2018-03-24T05:58:52.047Z,77.10
2018-03-24T06:01:20.737Z,75.10
2018-03-24T06:03:49.480Z,73.80
2018-03-24T06:06:18.243Z,73.10
2018-03-24T06:08:46.877Z,72.00
2018-03-24T06:11:15.571Z,72.10
2018-03-24T06:13:44.291Z,70.30
2018-03-24T06:16:16.507Z,69.60
2018-03-24T06:22:20.341Z,67.30
2018-03-24T06:24:49.086Z,66.20
2018-03-24T06:27:17.780Z,66.00
2018-03-24T06:29:46.594Z,66.30
2018-03-24T06:32:15.678Z,65.90
2018-03-24T06:34:45.132Z,65.40
2018-03-24T06:37:16.664Z,64.70
2018-03-24T06:39:46.099Z,62.40
2018-03-24T06:42:14.825Z,62.30
2018-03-24T06:44:43.402Z,60.40
2018-03-24T06:47:12.038Z,59.60
2018-03-24T06:49:40.671Z,59.60
2018-03-24T06:52:09.408Z,58.90
2018-03-24T06:54:38.804Z,57.40
2018-03-24T06:57:07.557Z,57.40
2018-03-24T06:59:39.902Z,56.90
2018-03-24T07:02:09.239Z,56.50
2018-03-24T07:04:38.564Z,56.30
2018-03-24T07:07:07.162Z,55.80
2018-03-24T07:09:35.919Z,55.60
2018-03-24T07:12:04.660Z,53.80
2018-03-24T07:14:34.329Z,53.60
2018-03-24T07:17:03.102Z,53.50
2018-03-24T07:19:32.100Z,52.80
2018-03-24T07:22:00.912Z,52.50
2018-03-24T07:24:29.714Z,52.10
2018-03-24T07:26:58.322Z,51.90
2018-03-24T07:29:27.776Z,50.20
2018-03-24T07:31:57.166Z,50.20
2018-03-24T07:34:26.777Z,49.80
2018-03-24T07:36:55.505Z,48.60
2018-03-24T07:39:24.131Z,47.60
2018-03-24T07:41:53.153Z,47.80
2018-03-24T07:44:21.803Z,47.90
2018-03-24T07:46:50.548Z,47.50
2018-03-24T07:49:19.256Z,47.60
2018-03-24T07:51:47.886Z,47.60
2018-03-24T07:54:16.652Z,47.50
2018-03-24T07:56:45.361Z,47.80
2018-03-24T08:00:03.377Z,47.70
2018-03-24T08:02:32.048Z,46.30
2018-03-24T08:05:01.892Z,43.60
2018-03-24T08:07:30.716Z,43.60
2018-03-24T08:09:59.444Z,43.40
2018-03-24T08:12:28.182Z,42.70
2018-03-24T08:14:56.956Z,43.10
2018-03-24T08:17:25.555Z,42.50
2018-03-24T08:19:54.208Z,43.60
2018-03-24T08:22:22.763Z,42.40
2018-03-24T08:24:51.485Z,41.00
2018-03-24T08:27:20.373Z,40.10
2018-03-24T08:29:50.000Z,39.60
2018-03-24T08:32:18.923Z,40.10
2018-03-24T08:34:47.599Z,39.00
2018-03-24T08:37:16.646Z,38.00
2018-03-24T08:39:45.681Z,38.00
2018-03-24T08:42:14.437Z,35.20
2018-03-24T08:44:43.724Z,33.90
2018-03-24T08:47:12.682Z,34.90
2018-03-24T08:49:41.376Z,36.20
2018-03-24T08:52:10.888Z,34.20
2018-03-24T08:54:44.348Z,33.60
2018-03-24T08:57:13.438Z,33.60
2018-03-24T08:59:42.413Z,32.40
2018-03-24T09:02:11.111Z,32.80
2018-03-24T09:04:39.803Z,32.50
2018-03-24T09:07:08.407Z,32.50
2018-03-24T09:09:37.041Z,33.40
2018-03-24T09:12:05.789Z,35.60
2018-03-24T09:14:34.472Z,36.30
2018-03-24T09:17:03.800Z,37.70
2018-03-24T09:19:33.332Z,36.50
2018-03-24T09:22:01.943Z,36.50
2018-03-24T09:24:30.604Z,36.20
2018-03-24T09:26:59.545Z,35.50
2018-03-24T09:29:28.448Z,35.50
2018-03-24T09:31:58.249Z,35.20
2018-03-24T09:34:26.906Z,34.70
2018-03-24T09:36:55.679Z,35.40
2018-03-24T09:39:24.309Z,35.70
2018-03-24T09:41:53.900Z,33.40
2018-03-24T09:44:22.481Z,33.40
2018-03-24T09:46:51.137Z,33.30
2018-03-24T09:49:21.020Z,35.00
2018-03-24T09:51:49.641Z,35.40
2018-03-24T09:54:19.164Z,35.10
2018-03-24T09:56:47.845Z,35.00
2018-03-24T09:59:16.741Z,36.40
2018-03-24T10:01:46.654Z,36.60
2018-03-24T10:04:16.765Z,36.60
2018-03-24T10:06:45.509Z,36.50
2018-03-24T10:09:15.272Z,34.90
2018-03-24T10:11:43.946Z,34.90
2018-03-24T10:14:13.932Z,35.50
2018-03-24T10:16:42.550Z,35.50
2018-03-24T10:19:11.449Z,35.40
2018-03-24T10:24:49.848Z,33.30
2018-03-24T10:27:18.867Z,33.20
2018-03-24T10:29:47.872Z,32.60
2018-03-24T10:32:17.148Z,30.80
2018-03-24T10:34:45.873Z,29.00
2018-03-24T10:37:14.728Z,29.40
2018-03-24T10:39:43.820Z,28.40
2018-03-24T10:42:13.223Z,28.20
2018-03-24T10:44:42.071Z,28.10
2018-03-24T10:47:10.915Z,28.40
2018-03-24T10:49:39.648Z,28.60
2018-03-24T10:52:08.488Z,27.90
2018-03-24T10:54:37.181Z,27.30
2018-03-24T10:57:06.911Z,28.20
2018-03-24T10:59:36.795Z,29.70
2018-03-24T11:02:06.120Z,29.20
2018-03-24T11:04:34.727Z,29.10
2018-03-24T11:07:03.387Z,30.50
2018-03-24T11:09:31.974Z,31.20
2018-03-24T11:12:01.440Z,32.20
2018-03-24T11:14:30.096Z,32.10
2018-03-24T11:16:58.825Z,32.20
2018-03-24T11:19:28.456Z,32.00
2018-03-24T11:21:57.854Z,31.90
2018-03-24T11:24:26.641Z,31.90
2018-03-24T11:26:55.475Z,30.60
2018-03-24T11:29:24.270Z,29.60
2018-03-24T11:31:53.236Z,29.50
2018-03-24T11:34:22.884Z,28.60
2018-03-24T11:36:52.029Z,28.60
2018-03-24T11:39:20.705Z,28.70
2018-03-24T11:41:49.368Z,28.80
2018-03-24T11:44:18.086Z,28.80
2018-03-24T11:46:47.570Z,29.60
2018-03-24T11:49:16.268Z,29.70
2018-03-24T11:51:45.037Z,28.60
2018-03-24T11:54:14.570Z,27.70
2018-03-24T11:56:43.209Z,27.60
2018-03-24T11:59:11.862Z,27.50
2018-03-24T12:01:41.371Z,27.20
2018-03-24T12:04:11.370Z,27.20
2018-03-24T12:06:40.411Z,27.20
2018-03-24T12:09:09.187Z,26.80
2018-03-24T12:11:37.792Z,26.10
2018-03-24T12:14:06.886Z,26.10
2018-03-24T12:16:35.694Z,26.20
2018-03-24T12:19:04.366Z,26.50
2018-03-24T12:21:33.020Z,27.30
2018-03-24T12:24:01.598Z,27.10
2018-03-24T12:26:31.122Z,28.00
2018-03-24T12:28:59.823Z,28.00
2018-03-24T12:31:28.550Z,28.40
2018-03-24T12:33:58.098Z,29.40
2018-03-24T12:36:28.427Z,29.60
2018-03-24T12:38:57.150Z,29.50
2018-03-24T12:41:25.864Z,29.50
2018-03-24T12:43:54.816Z,29.70
2018-03-24T12:46:23.485Z,29.80
2018-03-24T12:48:52.123Z,29.90
2018-03-24T12:51:20.805Z,30.00
2018-03-24T12:53:49.678Z,30.60
2018-03-24T12:56:19.341Z,30.90
2018-03-24T12:58:48.205Z,30.80
2018-03-24T13:01:18.076Z,29.10
2018-03-24T13:03:46.690Z,29.10
2018-03-24T13:06:15.698Z,29.10
2018-03-24T13:08:45.451Z,28.60
2018-03-24T13:11:14.397Z,27.50
2018-03-24T13:13:43.196Z,26.80
2018-03-24T13:16:12.467Z,26.60
2018-03-24T13:18:41.340Z,26.50
2018-03-24T13:21:10.958Z,27.10
2018-03-24T13:23:39.580Z,27.10
2018-03-24T13:26:09.182Z,27.70
2018-03-24T13:28:37.779Z,27.70
2018-03-24T13:31:06.630Z,27.50
2018-03-24T13:33:36.619Z,28.50
2018-03-24T13:36:06.599Z,28.50
2018-03-24T13:38:36.448Z,29.40
2018-03-24T13:41:05.326Z,28.60
2018-03-24T13:43:35.290Z,27.60
2018-03-24T13:46:03.986Z,27.60
2018-03-24T13:48:32.744Z,28.00
2018-03-24T13:51:01.413Z,28.20
2018-03-24T13:53:30.084Z,28.30
2018-03-24T13:55:58.780Z,29.10
2018-03-24T13:58:28.119Z,29.10
2018-03-24T14:00:56.964Z,29.60
2018-03-24T14:03:25.835Z,30.00
2018-03-24T14:05:54.528Z,29.40
2018-03-24T14:08:27.799Z,29.70
2018-03-24T14:10:56.603Z,29.80
2018-03-24T14:13:25.518Z,31.20
2018-03-24T14:15:54.278Z,31.40
2018-03-24T14:18:23.270Z,30.90
2018-03-24T14:20:52.405Z,31.40
2018-03-24T14:23:22.027Z,30.00
2018-03-24T14:25:50.797Z,30.00
2018-03-24T14:28:19.560Z,30.00
2018-03-24T14:30:48.482Z,30.00
2018-03-24T14:33:18.717Z,30.90
2018-03-24T14:35:47.841Z,30.70
2018-03-24T14:38:18.624Z,30.90
2018-03-24T14:40:48.438Z,30.80
2018-03-24T14:43:17.168Z,30.60
2018-03-24T14:45:45.890Z,30.80
2018-03-24T14:48:14.644Z,30.30
2018-03-24T14:50:43.450Z,30.40
2018-03-24T14:53:12.095Z,30.70
2018-03-24T14:55:41.722Z,30.70
2018-03-24T14:58:10.446Z,31.40
2018-03-24T15:00:39.130Z,31.10
2018-03-24T15:03:08.473Z,31.90
2018-03-24T15:05:38.417Z,31.90
2018-03-24T15:08:07.500Z,31.60
2018-03-24T15:10:37.589Z,32.00
2018-03-24T15:13:06.221Z,32.00
2018-03-24T15:15:35.591Z,31.50
2018-03-24T15:18:05.016Z,31.60
2018-03-24T15:20:33.743Z,31.70
2018-03-24T15:23:02.344Z,31.70
2018-03-24T15:25:31.083Z,31.80
2018-03-24T15:28:03.526Z,32.80
2018-03-24T15:30:52.397Z,32.00
2018-03-24T15:33:39.610Z,32.10
2018-03-24T15:36:26.281Z,32.30
2018-03-24T15:38:58.931Z,32.70
2018-03-24T15:41:28.262Z,32.60
2018-03-24T15:43:56.976Z,32.40
2018-03-24T15:46:25.839Z,32.40
2018-03-24T15:48:54.899Z,32.60
2018-03-24T15:51:24.202Z,32.70
2018-03-24T15:53:52.919Z,32.70
2018-03-24T15:56:21.578Z,32.60
2018-03-24T15:58:50.605Z,32.20
2018-03-24T16:01:19.659Z,32.20
2018-03-24T16:03:48.759Z,30.60
2018-03-24T16:06:18.197Z,30.90
2018-03-24T16:08:47.060Z,30.90
2018-03-24T16:11:15.805Z,31.30
2018-03-24T16:13:44.654Z,31.60
2018-03-24T16:16:14.372Z,31.70
2018-03-24T16:18:43.934Z,31.70
2018-03-24T16:21:13.570Z,31.70
2018-03-24T16:23:42.459Z,32.00
2018-03-24T16:26:12.261Z,32.40
2018-03-24T16:28:42.030Z,33.10
2018-03-24T16:31:11.840Z,32.60
2018-03-24T16:33:40.820Z,32.60
2018-03-24T16:36:09.836Z,32.70
2018-03-24T16:38:38.705Z,32.70
2018-03-24T16:41:07.685Z,32.50
2018-03-24T16:43:37.642Z,32.10
2018-03-24T16:46:08.052Z,32.50
2018-03-24T16:48:37.693Z,32.50
2018-03-24T16:51:06.817Z,32.60
2018-03-24T16:53:35.858Z,32.60
2018-03-24T16:56:05.069Z,32.90
2018-03-24T16:58:34.899Z,33.40
2018-03-24T17:01:04.734Z,34.00
2018-03-24T17:03:34.732Z,34.00
2018-03-24T17:06:04.053Z,34.50
2018-03-24T17:08:35.287Z,34.50
2018-03-24T17:11:06.892Z,35.00
2018-03-24T17:13:37.955Z,35.50
2018-03-24T17:16:08.055Z,35.40
2018-03-24T17:18:37.359Z,35.50
2018-03-24T17:21:07.157Z,36.10
2018-03-24T17:23:37.378Z,35.90
2018-03-24T17:26:11.429Z,36.10
2018-03-24T17:28:41.642Z,36.20
2018-03-24T17:31:11.570Z,37.70
2018-03-24T17:33:42.097Z,37.80
2018-03-24T17:36:13.179Z,38.00
2018-03-24T17:38:43.076Z,38.40
2018-03-24T17:41:13.001Z,38.80
2018-03-24T17:43:42.903Z,39.80
2018-03-24T17:46:12.869Z,39.80
2018-03-24T17:48:42.131Z,39.90
2018-03-24T17:51:16.433Z,40.40
2018-03-24T17:53:47.325Z,42.70
2018-03-24T17:56:22.168Z,44.30
2018-03-24T17:58:53.473Z,44.60
2018-03-24T18:01:24.975Z,45.10
2018-03-24T18:03:54.606Z,45.80
2018-03-24T18:06:25.089Z,46.30
2018-03-24T18:08:54.155Z,47.10
2018-03-24T18:11:24.265Z,46.80
2018-03-24T18:13:54.123Z,47.20
2018-03-24T18:16:23.335Z,47.70
2018-03-24T18:18:53.158Z,48.70
2018-03-24T18:21:23.183Z,49.60
2018-03-24T18:23:52.675Z,49.50
2018-03-24T18:26:22.807Z,50.80
2018-03-24T18:28:52.934Z,50.70
2018-03-24T18:31:22.430Z,50.70
2018-03-24T18:33:52.263Z,52.50
2018-03-24T18:36:23.021Z,54.10
2018-03-24T18:38:53.062Z,54.60
2018-03-24T18:41:23.004Z,55.00
2018-03-24T18:43:52.002Z,55.00
2018-03-24T18:46:33.485Z,55.50
2018-03-24T18:49:09.520Z,55.90
2018-03-24T18:51:39.286Z,56.30
2018-03-24T18:54:08.398Z,56.30
2018-03-24T18:56:38.368Z,56.60
2018-03-24T18:59:07.742Z,56.30
2018-03-24T19:01:36.981Z,56.60
2018-03-24T19:04:06.821Z,56.60
2018-03-24T19:06:36.692Z,57.00
2018-03-24T19:09:07.107Z,56.90
2018-03-24T19:11:37.307Z,57.10
2018-03-24T19:14:09.009Z,57.10
2018-03-24T19:16:39.034Z,57.90
2018-03-24T19:19:08.039Z,57.70
2018-03-24T19:21:38.017Z,59.60
2018-03-24T19:24:07.168Z,59.50
2018-03-24T19:26:36.191Z,60.50
2018-03-24T19:29:05.466Z,60.80
2018-03-24T19:31:34.674Z,60.90
2018-03-24T19:34:04.507Z,61.70
2018-03-24T19:36:34.326Z,62.10
2018-03-24T19:39:04.782Z,62.50
2018-03-24T19:41:36.224Z,62.40
2018-03-24T19:44:05.359Z,62.20
2018-03-24T19:46:36.544Z,62.10
2018-03-24T19:49:05.813Z,62.00
2018-03-24T19:51:36.793Z,62.20
2018-03-24T19:54:06.295Z,62.20
2018-03-24T19:56:35.789Z,62.50
2018-03-24T19:59:05.037Z,62.20
2018-03-24T20:01:34.604Z,62.40
2018-03-24T20:04:05.248Z,62.60
2018-03-24T20:06:35.063Z,63.40
2018-03-24T20:09:04.215Z,62.60
2018-03-24T20:11:34.771Z,63.50
2018-03-24T20:14:04.322Z,63.50
2018-03-24T20:16:33.559Z,64.00
2018-03-24T20:19:03.357Z,64.60
2018-03-24T20:21:32.439Z,65.10
2018-03-24T20:24:01.686Z,64.60
2018-03-24T20:26:30.823Z,64.70
2018-03-24T20:29:00.390Z,65.30
2018-03-24T20:31:29.997Z,65.40
2018-03-24T20:34:00.630Z,65.80
2018-03-24T20:36:31.785Z,66.70
2018-03-24T20:39:04.021Z,66.80
2018-03-24T20:41:33.364Z,66.70
2018-03-24T20:46:46.179Z,66.80
2018-03-24T20:49:15.983Z,67.60
2018-03-24T20:51:45.588Z,67.60
2018-03-24T20:54:15.713Z,67.60
2018-03-24T20:56:46.660Z,68.90
2018-03-24T20:59:16.808Z,68.90
2018-03-24T21:01:48.801Z,68.80
2018-03-24T21:04:42.503Z,68.50
2018-03-24T21:07:12.601Z,68.30
2018-03-24T21:09:42.178Z,70.00
2018-03-24T21:12:12.284Z,69.80
2018-03-24T21:14:42.170Z,70.30
2018-03-24T21:17:18.148Z,70.10
2018-03-24T21:19:49.165Z,69.90
2018-03-24T21:22:20.432Z,70.00
2018-03-24T21:24:49.884Z,69.50
2018-03-24T21:27:19.893Z,69.40
2018-03-24T21:29:50.435Z,69.30
2018-03-24T21:32:20.921Z,69.70
2018-03-24T21:34:50.797Z,70.40
2018-03-24T21:37:21.447Z,71.70
2018-03-24T21:39:51.114Z,70.90
2018-03-24T21:42:19.909Z,71.00
2018-03-24T21:44:50.927Z,71.10
2018-03-24T21:47:19.713Z,71.50
2018-03-24T21:49:49.240Z,72.00
2018-03-24T21:52:17.953Z,71.90
2018-03-24T21:54:47.068Z,72.20
2018-03-24T21:57:18.010Z,73.40
2018-03-24T21:59:47.641Z,73.10
2018-03-24T22:02:16.894Z,73.80
2018-03-24T22:04:45.662Z,74.10
2018-03-24T22:07:14.430Z,74.40
2018-03-24T22:09:43.120Z,73.80
2018-03-24T22:12:12.509Z,73.30
2018-03-24T22:14:41.211Z,72.80
2018-03-24T22:17:10.008Z,72.70
2018-03-24T22:19:39.186Z,72.70
2018-03-24T22:22:07.917Z,73.50
2018-03-24T22:24:36.799Z,73.60
2018-03-24T22:27:06.655Z,73.20
2018-03-24T22:29:35.620Z,73.20
2018-03-24T22:32:04.954Z,73.60
2018-03-24T22:34:33.512Z,73.20
2018-03-24T22:37:02.189Z,73.20
2018-03-24T22:39:30.986Z,73.40
2018-03-24T22:42:00.483Z,74.60
2018-03-24T22:44:29.190Z,74.60
2018-03-24T22:46:58.087Z,75.70
2018-03-24T22:49:26.859Z,75.50
2018-03-24T22:51:55.963Z,76.00
2018-03-24T22:54:24.747Z,76.70
2018-03-24T22:56:53.621Z,76.70
2018-03-24T22:59:22.479Z,76.20
2018-03-24T23:01:52.915Z,76.30
2018-03-24T23:04:22.117Z,76.30
2018-03-24T23:06:50.959Z,76.30
2018-03-24T23:09:21.107Z,76.30
2018-03-24T23:11:52.358Z,76.20
2018-03-24T23:14:23.551Z,76.40
2018-03-24T23:16:52.335Z,76.30
2018-03-24T23:19:21.019Z,76.40
2018-03-24T23:21:49.837Z,76.60
2018-03-24T23:24:18.521Z,76.90
2018-03-24T23:26:47.221Z,77.00
2018-03-24T23:29:16.845Z,77.10
2018-03-24T23:31:45.714Z,76.90
2018-03-24T23:34:15.152Z,77.30
2018-03-24T23:36:43.817Z,77.30
2018-03-24T23:39:12.493Z,77.30
2018-03-24T23:41:41.131Z,77.00
2018-03-24T23:44:09.818Z,77.10
2018-03-24T23:46:38.486Z,77.50
2018-03-24T23:49:07.275Z,77.50
2018-03-24T23:51:36.661Z,77.70
2018-03-24T23:54:05.300Z,77.70
2018-03-24T23:56:34.756Z,77.80
2018-03-24T23:59:03.983Z,77.80
